Time;durP1;ratioP1;P1;durP2;ratioP2;P2;SDS_P1;SDS_P2;PMS_P1;PMS_P2;Temp;Humidity;BMP_temperature;BMP_pressure;BME280_temperature;BME280_humidity;BME280_pressure;Samples;Min_cycle;Max_cycle;Signal;HPM_P1;HPM_P2
2021/04/21 00:00:17;;;;;;;9.98;7.87;;;;;;;7.79;70.19;98914.73;1702791;82;22064;-68
2021/04/21 00:02:49;;;;;;;10.45;7.92;;;;;;;7.74;69.98;98912.33;1705950;82;21667;-68
2021/04/21 00:05:18;;;;;;;7.45;6.75;;;;;;;7.71;70.53;98914.22;1679330;82;22130;-69
2021/04/21 00:07:47;;;;;;;8.03;7.25;;;;;;;7.79;70.51;98914.27;1674570;81;21525;-69
2021/04/21 00:10:17;;;;;;;7.62;6.87;;;;;;;7.78;70.52;98915.20;1717523;81;21554;-67
2021/04/21 00:12:46;;;;;;;9.63;7.62;;;;;;;7.77;70.50;98921.34;1701807;82;22697;-68
2021/04/21 00:15:17;;;;;;;12.98;8.35;;;;;;;7.77;70.48;98923.11;1685755;83;21683;-66
2021/04/21 00:17:47;;;;;;;9.28;8.30;;;;;;;7.74;70.54;98921.92;1718192;81;21587;-67
2021/04/21 00:20:17;;;;;;;8.95;8.03;;;;;;;7.70;70.59;98931.66;1705137;82;21617;-67
2021/04/21 00:22:49;;;;;;;8.80;7.35;;;;;;;7.64;70.75;98926.70;1686206;81;21654;-67
2021/04/21 00:25:17;;;;;;;9.95;7.50;;;;;;;7.67;71.02;98921.34;1721670;80;22102;-68
2021/04/21 00:27:45;;;;;;;;;;;;;;;7.79;70.94;98926.51;1688337;83;21901;-68
2021/04/21 00:30:15;;;;;;;12.35;7.55;;;;;;;7.78;70.83;98928.28;1700102;81;20313;-67
2021/04/21 00:32:51;;;;;;;7.15;6.47;;;;;;;7.72;70.74;98931.17;1717902;81;21658;-67
2021/04/21 00:35:36;;;;;;;9.08;7.50;;;;;;;7.68;70.87;98933.50;1717519;82;21662;-66
2021/04/21 00:38:14;;;;;;;10.85;7.45;;;;;;;7.64;70.79;98925.86;1704402;82;21780;-67
2021/04/21 00:40:56;;;;;;;8.60;6.95;;;;;;;7.59;70.79;98928.22;1704568;82;21659;-66
2021/04/21 00:43:48;;;;;;;7.87;6.42;;;;;;;7.53;70.82;98932.84;1713268;81;21638;-66
2021/04/21 00:46:38;;;;;;;7.30;6.55;;;;;;;7.55;71.21;98934.93;1702497;82;21636;-72
2021/04/21 00:49:35;;;;;;;7.80;6.30;;;;;;;7.61;71.11;98929.47;1674765;83;21272;-64
2021/04/21 00:52:09;;;;;;;6.97;6.28;;;;;;;7.60;71.00;98930.37;1813028;77;21755;-66
2021/04/21 00:55:01;;;;;;;7.75;7.05;;;;;;;7.52;71.04;98928.54;1787778;78;21617;-70
2021/04/21 00:57:50;;;;;;;9.28;6.78;;;;;;;7.46;71.14;98927.03;1778391;78;21862;-66
2021/04/21 01:00:22;;;;;;;7.80;6.35;;;;;;;7.38;71.20;98925.17;1807748;77;21124;-66
2021/04/21 01:03:06;;;;;;;7.00;6.30;;;;;;;7.31;71.29;98928.51;1808368;78;21594;-65
2021/04/21 01:05:44;;;;;;;8.95;6.20;;;;;;;7.34;71.68;98933.59;1786909;78;21856;-65
2021/04/21 01:08:15;;;;;;;;;;;;;;;7.43;71.58;98925.84;1814122;77;21823;-66
2021/04/21 01:10:48;;;;;;;7.42;6.47;;;;;;;7.34;71.63;98925.75;1799839;78;20295;-65
2021/04/21 01:13:16;;;;;;;7.33;6.62;;;;;;;7.25;71.67;98920.05;1792999;78;22151;-65
2021/04/21 01:15:44;;;;;;;7.75;6.92;;;;;;;7.15;71.77;98920.42;1814589;77;21160;-70
2021/04/21 01:18:13;;;;;;;7.58;6.78;;;;;;;7.12;71.86;98919.69;1776536;79;21760;-65
2021/04/21 01:20:52;;;;;;;10.65;6.80;;;;;;;7.08;71.93;98918.95;1793314;77;21680;-66
2021/04/21 01:24:16;;;;;;;8.70;6.58;;;;;;;7.13;72.25;98919.63;1760094;78;22827;-65
2021/04/21 01:27:08;;;;;;;7.50;6.58;;;;;;;7.27;72.08;98916.48;1792452;78;21750;-66
2021/04/21 01:29:45;;;;;;;6.53;5.92;;;;;;;7.21;71.96;98920.63;1790571;78;21673;-68
2021/04/21 01:32:25;;;;;;;7.58;6.78;;;;;;;7.14;72.04;98930.50;1784206;78;21937;-66
2021/04/21 01:34:55;;;;;;;8.75;7.80;;;;;;;7.14;71.89;98929.62;1790057;77;21220;-66
2021/04/21 01:37:31;;;;;;;7.92;7.15;;;;;;;7.09;71.95;98935.52;1743190;80;21171;-66
2021/04/21 01:40:20;;;;;;;8.85;6.87;;;;;;;7.07;72.02;98939.95;1772629;79;21775;-66
2021/04/21 01:42:52;;;;;;;7.12;6.42;;;;;;;7.14;72.28;98940.08;1785414;78;21147;-65
2021/04/21 01:45:26;;;;;;;8.53;7.37;;;;;;;7.25;72.12;98944.42;1779833;78;21859;-65
2021/04/21 01:47:57;;;;;;;7.92;7.12;;;;;;;7.25;72.03;98952.73;1837012;76;21263;-65
2021/04/21 01:50:26;;;;;;;8.40;7.45;;;;;;;7.20;71.93;98948.55;1773494;78;21602;-64
2021/04/21 01:53:20;;;;;;;;;;;;;;;7.20;71.86;98959.47;1782080;79;21598;-65
2021/04/21 01:56:11;;;;;;;9.73;7.08;;;;;;;7.19;71.95;98957.75;1789576;78;20693;-65
2021/04/21 01:59:06;;;;;;;8.23;7.42;;;;;;;7.12;71.83;98958.90;1775395;79;21938;-64
2021/04/21 02:01:49;;;;;;;7.35;6.65;;;;;;;7.07;71.88;98959.56;1784084;78;21602;-64
2021/04/21 02:04:52;;;;;;;7.62;6.53;;;;;;;7.13;72.12;98970.61;1772578;78;22118;-63
2021/04/21 02:08:02;;;;;;;8.53;7.62;;;;;;;7.19;72.05;98969.05;1798975;78;21597;-64
2021/04/21 02:10:47;;;;;;;9.45;6.95;;;;;;;7.16;71.93;98970.97;1702917;82;21677;-66
2021/04/21 02:13:36;;;;;;;8.18;7.37;;;;;;;7.09;72.10;98972.11;1724304;80;21593;-66
2021/04/21 02:16:23;;;;;;;7.72;6.92;;;;;;;6.95;72.24;98966.97;1704140;82;21679;-64
2021/04/21 02:19:21;;;;;;;7.53;6.12;;;;;;;6.87;72.39;98964.25;1717894;80;21554;-64
2021/04/21 02:22:03;;;;;;;6.12;5.53;;;;;;;6.84;72.89;98969.14;1742300;80;21583;-65
2021/04/21 02:24:46;;;;;;;6.05;5.45;;;;;;;6.88;72.91;98972.03;1732648;79;21571;-67
2021/04/21 02:27:42;;;;;;;6.05;5.55;;;;;;;6.87;72.95;98973.39;1761408;78;22099;-64
2021/04/21 02:30:27;;;;;;;6.55;5.83;;;;;;;6.86;72.83;98964.70;1776964;78;21621;-66
2021/04/21 02:33:27;;;;;;;6.42;5.80;;;;;;;6.78;72.89;98968.92;1763380;79;21621;-67
2021/04/21 02:35:58;;;;;;;5.90;5.00;;;;;;;6.75;72.91;98971.64;1766829;78;21556;-67
2021/04/21 02:38:53;;;;;;;10.48;5.45;;;;;;;6.76;73.63;98976.41;1781061;78;21538;-66
2021/04/21 02:41:26;;;;;;;9.28;5.67;;;;;;;6.74;73.39;98980.41;1730782;79;21831;-64
2021/04/21 02:44:36;;;;;;;6.00;5.40;;;;;;;6.67;73.71;98984.16;1774787;78;21574;-70
2021/04/21 02:47:27;;;;;;;7.75;5.70;;;;;;;6.62;73.74;98981.69;1719797;81;21651;-64
2021/04/21 02:50:26;;;;;;;6.12;5.62;;;;;;;6.62;74.19;98984.30;1766050;78;22831;-65
2021/04/21 02:53:18;;;;;;;7.92;5.75;;;;;;;6.52;73.90;98983.42;1736051;79;21632;-65
2021/04/21 02:56:18;;;;;;;7.20;5.72;;;;;;;6.54;74.21;98982.91;1743953;79;21996;-65
2021/04/21 02:59:23;;;;;;;6.17;5.45;;;;;;;6.65;74.30;98985.97;1741949;79;21686;-65
2021/04/21 03:02:32;;;;;;;7.15;5.42;;;;;;;6.56;74.21;98980.63;1746025;79;21580;-65
2021/04/21 03:05:11;;;;;;;6.60;6.00;;;;;;;6.53;74.42;98981.19;1724358;80;21699;-66
2021/04/21 03:07:53;;;;;;;7.17;6.03;;;;;;;6.55;74.26;98990.66;1750624;79;21683;-66
2021/04/21 03:10:25;;;;;;;6.47;5.75;;;;;;;6.59;74.58;98997.50;1757130;79;22114;-67
2021/04/21 03:13:17;;;;;;;5.97;5.17;;;;;;;6.69;74.52;98999.31;1710506;81;21584;-65
2021/04/21 03:15:50;;;;;;;8.08;5.97;;;;;;;6.69;74.46;98994.55;1689478;81;21669;-66
2021/04/21 03:18:21;;;;;;;5.92;5.37;;;;;;;6.67;74.52;98998.52;1677044;83;21674;-65
2021/04/21 03:21:08;;;;;;;7.55;5.72;;;;;;;6.60;74.54;99000.95;1701726;81;21687;-66
2021/04/21 03:23:39;;;;;;;6.58;5.60;;;;;;;6.57;74.65;99001.94;1682927;83;21911;-65
2021/04/21 03:26:07;;;;;;;6.97;5.35;;;;;;;6.66;74.90;98999.88;1692732;81;21623;-67
2021/04/21 03:28:36;;;;;;;6.72;5.60;;;;;;;6.75;74.83;99008.22;1699171;81;21632;-66
2021/04/21 03:31:05;;;;;;;6.92;5.87;;;;;;;6.69;74.83;99011.06;1676816;81;21207;-66
2021/04/21 03:33:50;;;;;;;6.00;5.47;;;;;;;6.65;74.91;99014.70;1729338;80;21650;-68
2021/04/21 03:36:19;;;;;;;7.08;6.00;;;;;;;6.68;74.89;99013.73;1735756;80;21880;-66
2021/04/21 03:38:48;;;;;;;9.10;5.92;;;;;;;6.68;74.80;99017.19;1743891;79;21690;-66
2021/04/21 03:41:16;;;;;;;7.33;6.30;;;;;;;6.75;75.07;99020.44;1746771;79;22147;-67
2021/04/21 03:43:45;;;;;;;7.87;6.25;;;;;;;6.88;74.80;99023.45;1749715;79;21648;-66
2021/04/21 03:46:15;;;;;;;9.43;6.85;;;;;;;6.88;74.69;99024.76;1729751;80;21624;-66
2021/04/21 03:48:43;;;;;;;7.65;6.70;;;;;;;6.87;74.67;99028.27;1745891;79;21667;-68
2021/04/21 03:51:13;;;;;;;7.58;6.65;;;;;;;6.85;74.72;99031.39;1755797;79;21185;-67
2021/04/21 03:53:42;;;;;;;6.92;5.53;;;;;;;6.82;74.74;99028.45;1735576;80;21157;-66
2021/04/21 03:56:21;;;;;;;5.97;5.37;;;;;;;6.88;75.05;99032.14;1748456;79;21595;-66
2021/04/21 03:58:49;;;;;;;6.10;5.50;;;;;;;6.96;74.84;99037.92;1750734;79;21730;-67
2021/04/21 04:03:51;;;;;;;5.70;5.28;;;;;;;6.95;74.88;99043.20;1825138;75;22171;-64
2021/04/21 04:06:34;;;;;;;5.62;5.05;;;;;;;6.87;74.86;99040.87;1799293;77;21651;-66
2021/04/21 04:09:06;;;;;;;6.22;5.28;;;;;;;6.88;74.96;99047.81;1794091;77;21718;-66
2021/04/21 04:11:47;;;;;;;6.35;5.50;;;;;;;6.98;74.92;99051.78;1735471;80;21629;-66
2021/04/21 04:14:24;;;;;;;6.78;6.17;;;;;;;7.06;74.76;99051.48;1737176;80;21636;-63
2021/04/21 04:16:53;;;;;;;;;;;;;;;7.04;74.69;99049.85;1764174;78;21627;-65
2021/04/21 04:19:22;;;;;;;5.87;5.28;;;;;;;6.99;74.87;99053.50;1738841;80;20509;-65
2021/04/21 04:22:06;;;;;;;6.03;5.45;;;;;;;6.95;74.73;99053.65;1730392;81;22076;-65
2021/04/21 04:24:50;;;;;;;8.43;5.15;;;;;;;6.94;74.98;99054.58;1752269;79;21597;-66
2021/04/21 04:27:26;;;;;;;8.08;6.03;;;;;;;6.97;75.22;99063.63;1722857;80;21650;-68
2021/04/21 04:29:56;;;;;;;6.80;6.08;;;;;;;7.06;74.96;99055.41;1711653;81;21612;-66
2021/04/21 04:32:25;;;;;;;5.92;5.40;;;;;;;7.03;75.02;99060.77;1741939;80;21541;-65
2021/04/21 04:34:55;;;;;;;6.30;5.70;;;;;;;7.06;74.99;99061.94;1751769;79;22163;-64
2021/04/21 04:37:39;;;;;;;6.47;5.87;;;;;;;7.10;74.98;99065.30;1752476;78;21156;-64
2021/04/21 04:40:23;;;;;;;8.23;6.60;;;;;;;7.19;75.14;99071.48;1750360;80;21846;-62
2021/04/21 04:42:51;;;;;;;10.38;6.78;;;;;;;7.25;74.73;99075.62;1756717;79;21218;-65
2021/04/21 04:45:20;;;;;;;7.12;6.40;;;;;;;7.23;74.74;99079.61;1732955;82;21664;-63
2021/04/21 04:47:52;;;;;;;7.15;6.40;;;;;;;7.20;74.82;99076.66;1755663;79;21910;-63
2021/04/21 04:50:21;;;;;;;8.15;7.35;;;;;;;7.25;75.00;99077.78;1740961;79;21150;-64
2021/04/21 04:52:52;;;;;;;7.80;6.72;;;;;;;7.30;74.82;99078.47;1740585;78;21594;-60
2021/04/21 17:37:51;;;;;;;4.35;3.65;;;;;;;9.67;59.19;99387.70;1794954;78;23048;-67
2021/04/21 17:40:21;;;;;;;;;;;;;;;9.54;57.49;99384.27;1770397;80;21186;-65
2021/04/21 17:43:15;;;;;;;5.67;4.20;;;;;;;9.50;59.72;99387.10;1757468;80;21689;-63
2021/04/21 17:45:47;;;;;;;5.50;4.22;;;;;;;9.39;59.85;99386.23;1728024;81;21685;-62
2021/04/21 17:48:15;;;;;;;6.58;4.90;;;;;;;9.31;61.06;99390.49;1702865;83;21602;-59
2021/04/21 17:50:44;;;;;;;;;;;;;;;9.26;61.52;99395.06;1734162;81;21627;-62
2021/04/21 17:53:13;;;;;;;7.05;4.42;;;;;;;9.21;62.55;99400.11;1715586;81;20351;-62
2021/04/21 17:55:41;;;;;;;8.33;6.05;;;;;;;9.15;62.35;99392.91;1699250;82;22064;-62
2021/04/21 17:58:09;;;;;;;11.12;7.53;;;;;;;9.12;62.93;99396.95;1697256;82;21616;-63
2021/04/21 18:00:37;;;;;;;10.35;8.10;;;;;;;9.09;63.59;99411.97;1699011;82;21727;-62
2021/04/21 18:03:06;;;;;;;7.40;6.70;;;;;;;9.05;63.74;99407.77;1695964;83;21653;-62
2021/04/21 18:05:34;;;;;;;9.65;7.05;;;;;;;9.00;63.86;99412.33;1698137;82;21613;-62
2021/04/21 18:08:24;;;;;;;10.10;7.00;;;;;;;8.99;64.06;99407.55;1698065;83;22094;-61
2021/04/21 18:10:53;;;;;;;8.43;5.95;;;;;;;8.99;64.24;99411.48;1689641;82;21241;-64
2021/04/21 18:13:21;;;;;;;9.68;5.70;;;;;;;9.04;64.86;99407.35;1690494;83;21572;-62
2021/04/21 18:15:49;;;;;;;7.35;5.80;;;;;;;9.15;64.67;99409.08;1686180;83;21671;-63
2021/04/21 18:18:17;;;;;;;9.83;7.45;;;;;;;9.16;64.59;99411.65;1687319;83;21557;-62
2021/04/21 18:20:46;;;;;;;9.93;6.87;;;;;;;9.15;64.57;99415.20;1687231;83;22167;-62
2021/04/21 18:23:16;;;;;;;8.88;6.62;;;;;;;9.15;64.62;99417.83;1689406;83;21719;-61
2021/04/21 18:25:44;;;;;;;9.30;7.87;;;;;;;9.15;64.62;99420.89;1689398;83;21652;-62
2021/04/21 18:28:12;;;;;;;10.88;7.58;;;;;;;9.14;64.76;99420.51;1688664;83;21557;-64
2021/04/21 18:30:40;;;;;;;;;;;;;;;9.12;64.80;99426.28;1693096;82;21609;-62
2021/04/21 18:33:11;;;;;;;9.75;8.65;;;;;;;9.11;65.15;99421.47;1685047;83;22075;-63
2021/04/21 18:35:39;;;;;;;12.60;9.25;;;;;;;9.08;64.86;99426.85;1689878;84;21642;-62
2021/04/21 18:38:07;;;;;;;11.48;8.85;;;;;;;9.07;64.93;99422.97;1683104;83;21679;-64
2021/04/21 18:40:37;;;;;;;;;;;;;;;9.09;64.82;99430.32;1691268;82;21632;-63
2021/04/21 18:43:05;;;;;;;15.08;9.80;;;;;;;9.10;65.03;99431.58;1690561;82;20554;-63
2021/04/21 18:45:33;;;;;;;18.02;11.88;;;;;;;9.07;64.62;99430.37;1688947;83;22074;-62
2021/04/21 18:48:04;;;;;;;21.87;15.98;;;;;;;9.08;64.66;99430.78;1688262;82;21673;-62
2021/04/21 18:50:32;;;;;;;19.37;14.15;;;;;;;9.08;64.77;99429.91;1683114;82;21676;-65
2021/04/21 18:53:01;;;;;;;21.75;15.08;;;;;;;9.07;64.76;99429.53;1689249;83;21648;-68
2021/04/21 18:55:30;;;;;;;;;;;;;;;9.11;65.16;99434.58;1642430;83;21690;-68
2021/04/21 18:57:58;;;;;;;12.10;10.13;;;;;;;9.22;64.92;99430.69;1688424;82;21905;-65
2021/04/21 19:00:27;;;;;;;12.95;8.83;;;;;;;9.19;64.65;99429.02;1683459;82;21655;-62
2021/04/21 19:02:55;;;;;;;17.10;11.97;;;;;;;9.15;64.72;99425.70;1687388;82;21595;-66
2021/04/21 19:05:23;;;;;;;16.40;11.50;;;;;;;9.13;64.76;99438.45;1687298;83;21682;-66
2021/04/21 19:07:52;;;;;;;13.38;11.10;;;;;;;9.09;64.79;99445.59;1688406;84;21655;-67
2021/04/21 19:10:20;;;;;;;17.07;11.53;;;;;;;8.97;64.95;99455.27;1680629;83;21727;-67
2021/04/21 19:12:48;;;;;;;17.40;11.88;;;;;;;8.85;65.24;99447.87;1676736;84;21592;-67
2021/04/21 19:15:18;;;;;;;17.95;12.68;;;;;;;8.81;65.45;99445.82;1716689;81;21623;-64
2021/04/21 19:17:46;;;;;;;17.07;12.35;;;;;;;8.80;65.58;99459.86;1717196;81;21145;-65
2021/04/21 19:20:16;;;;;;;18.95;12.55;;;;;;;8.74;65.82;99462.26;1715854;82;21206;-65
2021/04/21 19:22:45;;;;;;;23.45;13.93;;;;;;;8.69;65.90;99451.55;1717890;82;22066;-66
2021/04/21 19:25:14;;;;;;;18.20;12.80;;;;;;;8.69;66.09;99460.73;1718103;81;21573;-66
2021/04/21 19:27:42;;;;;;;24.52;14.15;;;;;;;8.65;66.62;99452.13;1719478;81;21611;-66
2021/04/21 19:30:15;;;;;;;18.32;13.20;;;;;;;8.82;66.62;99451.48;1716542;81;21622;-69
2021/04/21 19:32:44;;;;;;;16.48;10.53;;;;;;;8.80;66.45;99454.62;1714932;82;21580;-65
2021/04/21 19:35:15;;;;;;;17.48;10.95;;;;;;;8.78;66.42;99449.89;1721301;82;21988;-67
2021/04/21 19:37:43;;;;;;;12.82;10.45;;;;;;;8.76;66.32;99446.48;1713614;81;21598;-68
2021/04/21 19:40:14;;;;;;;16.62;11.03;;;;;;;8.72;66.24;99436.56;1717868;81;22024;-67
2021/04/21 19:42:43;;;;;;;15.65;10.18;;;;;;;8.70;66.26;99442.76;1712398;81;21156;-68
2021/04/21 19:45:13;;;;;;;13.98;9.45;;;;;;;8.65;66.28;99439.48;1716343;82;21704;-66
2021/04/21 19:47:42;;;;;;;16.35;9.80;;;;;;;8.65;66.25;99433.77;1683932;83;22175;-68
2021/04/21 19:50:12;;;;;;;11.80;9.25;;;;;;;8.63;66.23;99438.69;1682752;83;21655;-63
2021/04/21 19:52:40;;;;;;;11.45;9.10;;;;;;;8.58;66.23;99434.45;1718929;82;21773;-66
2021/04/21 19:55:11;;;;;;;13.43;9.93;;;;;;;8.61;66.20;99435.24;1715672;82;21659;-67
2021/04/21 19:57:39;;;;;;;14.78;8.80;;;;;;;8.60;66.25;99442.72;1715107;81;21642;-61
2021/04/21 20:00:10;;;;;;;11.60;8.95;;;;;;;8.64;66.67;99443.84;1722502;81;21623;-63
2021/04/21 20:02:38;;;;;;;11.70;8.25;;;;;;;8.75;66.55;99441.67;1715348;81;21138;-61
2021/04/21 20:05:07;;;;;;;11.65;8.88;;;;;;;8.77;66.40;99446.39;1720642;81;21174;-63
2021/04/21 20:07:35;;;;;;;11.25;9.13;;;;;;;8.77;66.29;99452.10;1718872;81;21696;-62
2021/04/21 20:10:05;;;;;;;11.35;9.33;;;;;;;8.77;66.11;99441.15;1705883;81;21585;-70
2021/04/21 20:12:33;;;;;;;13.85;9.18;;;;;;;8.80;65.94;99436.27;1686311;83;21565;-63
2021/04/21 20:15:02;;;;;;;13.98;10.05;;;;;;;8.75;65.98;99444.29;1687194;83;21695;-63
2021/04/21 20:17:30;;;;;;;14.13;9.73;;;;;;;8.38;65.97;99383.22;1680376;84;21576;-64
2021/04/21 20:19:58;;;;;;;12.37;9.73;;;;;;;8.73;65.98;99445.27;1686572;83;21672;-63
2021/04/21 20:22:28;;;;;;;13.53;9.88;;;;;;;8.73;66.00;99431.70;1676362;83;21206;-64
2021/04/21 20:24:56;;;;;;;12.23;10.03;;;;;;;8.76;65.87;99436.84;1684456;83;21883;-64
2021/04/21 20:27:25;;;;;;;13.80;10.20;;;;;;;8.76;65.88;99429.44;1687765;83;21622;-64
2021/04/21 20:29:54;;;;;;;16.70;10.72;;;;;;;8.79;65.79;99441.56;1687342;83;21544;-63
2021/04/21 20:32:22;;;;;;;14.35;10.93;;;;;;;8.76;65.73;99445.17;1656403;84;21690;-63
2021/04/21 20:34:50;;;;;;;14.95;9.90;;;;;;;8.75;65.68;99446.06;1677792;83;21677;-63
2021/04/21 20:37:18;;;;;;;16.37;9.88;;;;;;;8.80;66.08;99440.20;1686102;84;22109;-65
2021/04/21 20:39:46;;;;;;;15.32;10.45;;;;;;;8.85;65.96;99430.83;1683361;84;21713;-62
2021/04/21 20:42:14;;;;;;;15.20;10.48;;;;;;;8.89;65.74;99439.84;1687594;83;21666;-62
2021/04/21 20:44:49;;;;;;;17.40;11.03;;;;;;;8.90;65.60;99440.69;1687202;83;21687;-62
2021/04/21 20:47:17;;;;;;;16.05;10.90;;;;;;;8.90;65.50;99436.29;1656607;84;21595;-62
2021/04/21 20:49:46;;;;;;;14.50;10.63;;;;;;;8.92;65.35;99446.72;1674727;84;21902;-63
2021/04/21 20:52:14;;;;;;;15.23;10.53;;;;;;;8.93;65.27;99445.36;1686979;83;21237;-62
2021/04/21 20:54:42;;;;;;;14.95;10.72;;;;;;;8.92;65.14;99446.26;1648538;84;21650;-62
2021/04/21 20:57:11;;;;;;;17.35;10.80;;;;;;;8.91;65.19;99450.24;1653832;85;22085;-62
2021/04/21 20:59:39;;;;;;;14.60;11.48;;;;;;;8.88;65.24;99447.77;1677589;83;21643;-63
2021/04/21 21:02:09;;;;;;;15.08;11.55;;;;;;;8.83;65.33;99458.41;1673891;84;22170;-64
2021/04/21 21:04:38;;;;;;;16.17;11.08;;;;;;;8.77;65.47;99456.03;1677788;83;21182;-63
2021/04/21 21:07:05;;;;;;;;;;;;;;;8.70;65.59;99450.63;1680851;83;21870;-63
2021/04/21 21:09:33;;;;;;;;;;;;;;;8.64;65.86;99454.33;1683305;83;20491;-67
2021/04/21 21:12:02;;;;;;;13.68;9.80;;;;;;;8.56;66.18;99450.69;1711266;82;20318;-67
2021/04/21 21:14:30;;;;;;;12.85;10.30;;;;;;;8.47;66.00;99451.03;1708814;82;21823;-66
2021/04/21 21:16:58;;;;;;;;;;;;;;;8.43;66.20;99445.52;1678716;83;21583;-66
2021/04/21 21:19:27;;;;;;;13.50;9.38;;;;;;;8.43;66.69;99446.82;1683536;83;20617;-70
2021/04/21 21:21:55;;;;;;;12.35;9.98;;;;;;;8.52;66.57;99448.25;1684131;83;21270;-66
2021/04/21 21:24:23;;;;;;;14.07;10.32;;;;;;;8.51;66.53;99444.80;1662385;84;21747;-68
2021/04/21 21:26:51;;;;;;;13.32;10.45;;;;;;;8.48;66.58;99447.52;1712051;82;22036;-66
2021/04/21 21:29:20;;;;;;;14.13;10.45;;;;;;;8.47;66.49;99443.64;1710608;83;21666;-64
2021/04/21 21:31:48;;;;;;;13.28;11.05;;;;;;;8.42;66.54;99445.13;1711219;82;21671;-64
2021/04/21 21:34:16;;;;;;;14.05;10.18;;;;;;;8.40;66.52;99452.16;1708695;82;21602;-64
2021/04/21 21:36:45;;;;;;;15.20;10.63;;;;;;;8.37;66.56;99453.11;1709721;82;21705;-64
2021/04/21 21:39:14;;;;;;;14.03;11.35;;;;;;;8.37;66.59;99453.58;1673039;83;21612;-64
2021/04/21 21:41:43;;;;;;;15.53;10.85;;;;;;;8.37;66.61;99454.42;1711287;82;21696;-65
2021/04/21 21:44:12;;;;;;;17.50;12.00;;;;;;;8.36;66.73;99459.71;1708110;83;21493;-63
2021/04/21 21:46:40;;;;;;;20.30;12.80;;;;;;;8.34;66.79;99459.80;1709577;82;21580;-71
2021/04/21 21:49:08;;;;;;;19.37;12.18;;;;;;;8.24;66.86;99447.08;1702985;83;21678;-63
2021/04/21 21:51:36;;;;;;;13.20;10.28;;;;;;;8.36;67.41;99458.40;1712235;82;21807;-63
2021/04/21 21:54:05;;;;;;;16.20;11.00;;;;;;;8.47;67.38;99456.27;1709368;82;21882;-63
2021/04/21 21:56:33;;;;;;;14.50;10.90;;;;;;;8.46;67.23;99458.52;1710766;82;21501;-64
2021/04/21 21:59:02;;;;;;;15.03;10.60;;;;;;;8.43;67.20;99467.78;1709311;82;21676;-63
2021/04/21 22:01:30;;;;;;;15.25;10.85;;;;;;;8.43;67.24;99464.31;1707681;83;21659;-64
2021/04/21 22:03:58;;;;;;;14.65;11.75;;;;;;;8.41;67.18;99463.02;1707252;82;22449;-63
2021/04/21 22:06:26;;;;;;;13.75;10.23;;;;;;;8.37;67.25;99470.14;1676926;83;21618;-61
2021/04/21 22:08:55;;;;;;;11.75;10.32;;;;;;;8.34;67.35;99476.82;1707486;83;21907;-61
2021/04/21 22:11:23;;;;;;;13.62;10.23;;;;;;;8.32;67.35;99480.38;1711863;82;21616;-62
2021/04/21 22:13:51;;;;;;;12.98;9.48;;;;;;;8.28;67.40;99482.26;1675969;84;21724;-61
2021/04/21 22:16:20;;;;;;;12.13;9.15;;;;;;;8.22;67.64;99483.80;1713741;82;21671;-62
2021/04/21 22:18:48;;;;;;;14.80;9.03;;;;;;;8.27;68.13;99484.50;1677453;83;21679;-62
2021/04/21 22:21:18;;;;;;;14.55;9.68;;;;;;;8.36;67.92;99484.16;1670739;84;21576;-62
2021/04/21 22:23:46;;;;;;;11.33;9.05;;;;;;;8.35;67.93;99481.59;1713507;82;21556;-62
2021/04/21 22:26:15;;;;;;;9.98;8.90;;;;;;;8.35;67.86;99485.53;1707654;82;21691;-63
2021/04/21 22:28:43;;;;;;;12.05;8.65;;;;;;;8.31;67.92;99486.55;1707433;83;22090;-63
2021/04/21 22:31:12;;;;;;;12.58;9.20;;;;;;;8.28;68.05;99495.36;1679235;83;21694;-63
2021/04/21 22:33:40;;;;;;;10.38;8.73;;;;;;;8.26;68.17;99495.02;1713605;82;22010;-63
2021/04/21 22:36:07;;;;;;;;;;;;;;;8.23;68.32;99493.81;1711505;82;21655;-63
2021/04/21 22:38:35;;;;;;;12.10;8.95;;;;;;;8.18;68.75;99496.61;1712395;82;22875;-62
2021/04/21 22:41:03;;;;;;;10.80;8.48;;;;;;;8.18;69.05;99499.22;1677512;83;22020;-63
2021/04/21 22:43:31;;;;;;;11.65;8.58;;;;;;;8.24;69.03;99499.00;1680136;83;22203;-63
2021/04/21 22:45:58;;;;;;;11.60;9.25;;;;;;;8.23;69.06;99498.62;1716162;82;21572;-64
2021/04/21 22:48:26;;;;;;;11.50;9.43;;;;;;;8.19;69.16;99500.92;1711190;82;21647;-64
2021/04/21 22:50:54;;;;;;;13.48;9.43;;;;;;;8.17;69.26;99503.62;1704647;83;27353;-64
2021/04/21 22:53:21;;;;;;;;;;;;;;;8.15;69.24;99506.72;1713596;82;22049;-64
2021/04/21 22:55:50;;;;;;;12.45;9.58;;;;;;;8.13;69.47;99507.23;1710647;82;28811;-64
2021/04/21 22:58:20;;;;;;;11.20;8.68;;;;;;;8.09;69.35;99506.94;1677815;83;22607;-63
2021/04/21 23:00:49;;;;;;;14.43;9.73;;;;;;;8.08;69.67;99505.24;1683839;83;22265;-67
2021/04/21 23:03:17;;;;;;;11.53;9.65;;;;;;;8.17;69.94;99501.43;1703024;82;21615;-64
2021/04/21 23:05:46;;;;;;;13.70;10.35;;;;;;;8.22;69.70;99496.05;1710137;82;21932;-62
2021/04/21 23:08:14;;;;;;;11.18;9.63;;;;;;;8.22;69.59;99494.27;1672639;83;21679;-62
2021/04/21 23:10:43;;;;;;;10.38;9.33;;;;;;;8.16;69.67;99491.88;1670610;84;21757;-64
2021/04/21 23:13:11;;;;;;;10.50;9.40;;;;;;;8.17;69.69;99497.50;1658638;84;21151;-63
2021/04/21 23:15:41;;;;;;;12.65;9.30;;;;;;;8.16;69.70;99489.27;1680057;83;21605;-63
2021/04/21 23:18:10;;;;;;;11.48;9.20;;;;;;;8.15;69.66;99500.17;1640295;84;21906;-62
2021/04/21 23:20:43;;;;;;;9.80;8.55;;;;;;;8.18;70.09;99496.14;1645489;84;21203;-64
2021/04/21 23:23:15;;;;;;;11.85;9.18;;;;;;;8.28;69.90;99497.97;1712402;82;21860;-66
2021/04/21 23:25:46;;;;;;;13.72;9.35;;;;;;;8.26;69.73;99494.56;1710546;82;21663;-61
2021/04/21 23:28:14;;;;;;;9.93;8.93;;;;;;;8.24;69.72;99497.69;1714501;82;21635;-61
2021/04/21 23:30:42;;;;;;;9.50;8.50;;;;;;;8.22;69.76;99494.27;1716200;82;22412;-65
2021/04/21 23:33:10;;;;;;;11.00;8.68;;;;;;;8.21;69.72;99491.23;1713158;83;21669;-62
2021/04/21 23:35:38;;;;;;;13.22;8.78;;;;;;;8.18;69.79;99495.30;1709671;82;21611;-66
2021/04/21 23:38:06;;;;;;;11.57;8.38;;;;;;;8.19;69.96;99499.17;1712989;82;21587;-67
2021/04/21 23:40:33;;;;;;;10.32;8.00;;;;;;;8.30;70.15;99499.23;1714367;83;21657;-66
2021/04/21 23:43:01;;;;;;;;;;;;;;;8.34;69.95;99500.40;1717109;82;21963;-68
2021/04/21 23:45:29;;;;;;;10.60;8.98;;;;;;;8.31;69.82;99497.03;1711215;82;20543;-67
2021/04/21 23:47:57;;;;;;;10.75;8.00;;;;;;;8.23;69.75;99500.36;1715663;82;21678;-67
2021/04/21 23:50:26;;;;;;;11.18;8.88;;;;;;;8.21;69.79;99500.87;1713220;82;21193;-62
2021/04/21 23:52:53;;;;;;;11.03;8.80;;;;;;;8.15;69.84;99496.23;1714012;82;21516;-64
2021/04/21 23:55:23;;;;;;;10.10;8.08;;;;;;;8.12;69.94;99500.76;1713862;82;22122;-63
2021/04/21 23:57:51;;;;;;;9.63;7.62;;;;;;;8.11;70.29;99499.03;1714104;83;21680;-64
